Delta, Kentucky
Current Conditions -  °F | °C
As of 1:56 PM on Saturday 25 Oct 2014 (Local Time) from KEKQ Reporting Station
Overcast Overcast  
Wind Chill: 20°   Ceiling: 3300
Heat Index: 20°   Visibility: 10mi
Dew Point: 12°   Wind: 9mph
Humidity: 59%   Direction: 220°SW
Pressure: 30.06"   Gusts: NA
Location:  36.8129°N, 84.8215°W
Report Text: KEKQ 251756Z AUTO 22008KT 10SM OVC033 21/12 A3006 RMK AO2 58013 T02050122 10205 20050 SLP182
Loading
Personal Weather Stations






























Interactive Weather Map
Tropical Storm Tracking
New forecast layout! Learn more

10-Day Weather Forecast

Advertisements
Track Severe Weather on mobile